Time;durP1;ratioP1;P1;durP2;ratioP2;P2;SDS_P1;SDS_P2;PMS_P1;PMS_P2;Temp;Humidity;BMP_temperature;BMP_pressure;BME280_temperature;BME280_humidity;BME280_pressure;Samples;Min_cycle;Max_cycle;Signal;HPM_P1;HPM_P2
2023/04/12 00:04:27;;;;;;;;;;;17.40;54.80;;;;;;10406976;28;88501;-66
2023/04/12 00:09:29;;;;;;;;;;;17.40;54.80;;;;;;10423274;28;89076;-66
2023/04/12 00:14:31;;;;;;;;;;;17.30;54.70;;;;;;10423477;28;90064;-67
2023/04/12 00:19:32;;;;;;;;;;;17.30;54.80;;;;;;10424075;28;88625;-67
2023/04/12 00:24:34;;;;;;;;;;;17.30;54.90;;;;;;10422290;28;88075;-67
2023/04/12 00:29:36;;;;;;;;;;;17.30;54.90;;;;;;10423461;28;88410;-66
2023/04/12 00:34:38;;;;;;;;;;;17.30;54.90;;;;;;10422116;28;89532;-66
2023/04/12 00:39:40;;;;;;;;;;;17.30;55.00;;;;;;10421791;28;89040;-66
2023/04/12 00:44:41;;;;;;;;;;;17.30;55.10;;;;;;10423337;28;89068;-67
2023/04/12 00:49:43;;;;;;;;;;;17.30;55.20;;;;;;10421981;28;88735;-66
2023/04/12 00:54:45;;;;;;;;;;;17.30;55.20;;;;;;10403765;28;88639;-66
2023/04/12 00:59:47;;;;;;;;;;;17.30;55.30;;;;;;10421871;28;88889;-66
2023/04/12 01:04:50;;;;;;;;;;;17.30;56.40;;;;;;10421536;28;89123;-65
2023/04/12 01:10:10;;;;;;;;;;;17.20;55.40;;;;;;10422850;28;87930;-67
2023/04/12 01:15:13;;;;;;;;;;;17.30;55.50;;;;;;10422650;28;89754;-65
2023/04/12 01:20:18;;;;;;;;;;;17.20;55.60;;;;;;10403529;28;90496;-66
2023/04/12 01:25:31;;;;;;;;;;;17.20;55.70;;;;;;10419876;28;89911;-66
2023/04/12 01:30:33;;;;;;;;;;;17.20;55.60;;;;;;10421803;28;88970;-66
2023/04/12 01:35:35;;;;;;;;;;;17.20;55.60;;;;;;10420867;28;89965;-66
2023/04/12 01:40:39;;;;;;;;;;;17.20;55.80;;;;;;10403150;28;89824;-65
2023/04/12 01:45:41;;;;;;;;;;;17.20;55.70;;;;;;10420059;28;89049;-66
2023/04/12 01:50:46;;;;;;;;;;;17.20;55.80;;;;;;10420341;28;88999;-66
2023/04/12 01:55:48;;;;;;;;;;;17.20;55.80;;;;;;10421003;28;88646;-66
2023/04/12 02:00:50;;;;;;;;;;;17.20;55.90;;;;;;10421212;28;89330;-66
2023/04/12 02:05:52;;;;;;;;;;;17.20;56.00;;;;;;10421471;28;88269;-66
2023/04/12 02:10:54;;;;;;;;;;;17.20;56.00;;;;;;10420720;28;90034;-66
2023/04/12 02:15:58;;;;;;;;;;;17.20;56.10;;;;;;10418608;28;90148;-66
2023/04/12 02:20:59;;;;;;;;;;;17.20;56.10;;;;;;10418861;27;88190;-66
2023/04/12 02:26:02;;;;;;;;;;;17.20;56.10;;;;;;10419581;28;90279;-66
2023/04/12 02:31:04;;;;;;;;;;;17.20;56.10;;;;;;10419234;28;90256;-65
2023/04/12 02:36:09;;;;;;;;;;;17.20;56.20;;;;;;10419823;28;90166;-66
2023/04/12 02:41:15;;;;;;;;;;;17.10;56.10;;;;;;10418797;28;90237;-66
2023/04/12 02:46:18;;;;;;;;;;;17.10;56.20;;;;;;10419528;28;89050;-67
2023/04/12 02:51:20;;;;;;;;;;;17.10;56.20;;;;;;10419092;28;88882;-66
2023/04/12 02:56:23;;;;;;;;;;;17.10;56.30;;;;;;10418105;28;88173;-66
2023/04/12 03:01:25;;;;;;;;;;;17.10;56.30;;;;;;10418280;28;88350;-65
2023/04/12 03:06:28;;;;;;;;;;;17.10;56.40;;;;;;10416704;28;90054;-66
2023/04/12 03:11:30;;;;;;;;;;;17.10;56.40;;;;;;10418482;28;89050;-66
2023/04/12 03:16:34;;;;;;;;;;;17.10;56.40;;;;;;10417476;28;89183;-66
2023/04/12 03:21:36;;;;;;;;;;;17.10;56.40;;;;;;10418114;28;88496;-66
2023/04/12 03:26:38;;;;;;;;;;;17.10;56.40;;;;;;10417341;28;89135;-66
2023/04/12 03:31:39;;;;;;;;;;;17.10;56.40;;;;;;10399212;28;90059;-66
2023/04/12 03:36:41;;;;;;;;;;;17.10;57.50;;;;;;10398682;28;89994;-65
2023/04/12 03:41:43;;;;;;;;;;;17.00;56.50;;;;;;10417459;28;89262;-66
2023/04/12 05:04:41;;;;;;;;;;;17.10;56.80;;;;;;10118411;28;89926;-71
2023/04/12 05:09:43;;;;;;;;;;;17.10;56.70;;;;;;10136386;28;89402;-69
2023/04/12 05:14:45;;;;;;;;;;;17.10;56.70;;;;;;10136287;28;90015;-69
2023/04/12 05:19:52;;;;;;;;;;;17.20;56.70;;;;;;10136224;28;89670;-70
2023/04/12 05:24:54;;;;;;;;;;;17.10;56.60;;;;;;10136377;28;89025;-69
2023/04/12 05:29:56;;;;;;;;;;;17.10;56.70;;;;;;10135618;28;88845;-69
2023/04/12 05:34:58;;;;;;;;;;;17.10;57.40;;;;;;10118101;28;89675;-67
2023/04/12 05:40:00;;;;;;;;;;;17.10;58.20;;;;;;10135516;28;89281;-66
2023/04/12 05:45:02;;;;;;;;;;;17.10;58.10;;;;;;10135526;28;88783;-67
2023/04/12 05:50:05;;;;;;;;;;;17.10;57.70;;;;;;10131606;28;89083;-67
2023/04/12 05:55:07;;;;;;;;;;;17.10;57.70;;;;;;10133371;28;89524;-68
2023/04/12 06:00:16;;;;;;;;;;;17.00;57.80;;;;;;10117056;28;88861;-67
2023/04/12 06:05:18;;;;;;;;;;;17.00;57.80;;;;;;10134502;28;89527;-67
2023/04/12 06:10:20;;;;;;;;;;;17.00;57.90;;;;;;10133238;28;89868;-67
2023/04/12 06:15:22;;;;;;;;;;;17.00;58.00;;;;;;10117841;28;90110;-68
2023/04/12 06:20:24;;;;;;;;;;;17.00;58.00;;;;;;10134397;28;90063;-67
2023/04/12 06:25:26;;;;;;;;;;;17.00;58.10;;;;;;10116949;28;89220;-67
2023/04/12 06:30:27;;;;;;;;;;;17.00;58.10;;;;;;10135313;28;89487;-67
2023/04/12 06:35:29;;;;;;;;;;;17.00;58.20;;;;;;10133768;28;90091;-66
2023/04/12 06:40:31;;;;;;;;;;;17.00;58.20;;;;;;10133644;28;90769;-67
2023/04/12 06:45:33;;;;;;;;;;;17.00;58.20;;;;;;10132762;28;90497;-67
2023/04/12 06:50:35;;;;;;;;;;;16.90;58.20;;;;;;10165568;28;89084;-68
2023/04/12 06:55:36;;;;;;;;;;;17.00;58.20;;;;;;10187726;28;90078;-67
2023/04/12 07:00:38;;;;;;;;;;;17.00;58.30;;;;;;10172209;28;89966;-68
2023/04/12 07:05:40;;;;;;;;;;;17.00;58.30;;;;;;10154926;28;89636;-67
2023/04/12 07:10:42;;;;;;;;;;;16.90;58.40;;;;;;10171722;28;88858;-68
2023/04/12 07:15:45;;;;;;;;;;;16.90;58.40;;;;;;10172258;28;88917;-66
2023/04/12 07:20:47;;;;;;;;;;;16.90;58.40;;;;;;10173104;28;88352;-67
2023/04/12 07:25:49;;;;;;;;;;;16.90;58.50;;;;;;10172348;28;89967;-67
2023/04/12 07:30:51;;;;;;;;;;;16.90;58.50;;;;;;10170809;28;88620;-66
2023/04/12 07:35:53;;;;;;;;;;;16.90;58.50;;;;;;10171354;28;91119;-67
2023/04/12 07:40:55;;;;;;;;;;;16.90;59.50;;;;;;10171472;28;90213;-67
2023/04/12 07:45:56;;;;;;;;;;;16.90;58.60;;;;;;10171646;28;89048;-68
2023/04/12 07:50:58;;;;;;;;;;;16.90;58.70;;;;;;10154151;28;89938;-67
2023/04/12 07:56:03;;;;;;;;;;;16.90;58.70;;;;;;10170937;28;89234;-67
2023/04/12 08:01:06;;;;;;;;;;;16.90;58.70;;;;;;10171253;28;89110;-67
2023/04/12 08:06:08;;;;;;;;;;;16.80;58.70;;;;;;10171345;28;89135;-67
2023/04/12 08:11:11;;;;;;;;;;;16.80;58.70;;;;;;10170465;28;88309;-67
2023/04/12 08:16:12;;;;;;;;;;;16.80;58.80;;;;;;10170378;28;89726;-67
2023/04/12 08:21:14;;;;;;;;;;;16.80;58.80;;;;;;10175215;28;90069;-67
2023/04/12 08:26:16;;;;;;;;;;;16.80;58.80;;;;;;10176792;28;90806;-67
2023/04/12 08:31:18;;;;;;;;;;;16.80;58.90;;;;;;10177127;28;89082;-68
2023/04/12 08:36:19;;;;;;;;;;;16.80;58.80;;;;;;10176112;28;89233;-67
2023/04/12 08:41:21;;;;;;;;;;;16.80;58.80;;;;;;10176496;28;89215;-67
2023/04/12 08:46:23;;;;;;;;;;;16.90;58.80;;;;;;10176845;28;88417;-67
2023/04/12 08:51:25;;;;;;;;;;;16.80;59.00;;;;;;10136813;28;88117;-66
2023/04/12 08:56:28;;;;;;;;;;;16.90;59.10;;;;;;10137538;28;89611;-68
2023/04/12 09:01:30;;;;;;;;;;;16.90;59.10;;;;;;10137559;28;89809;-68
2023/04/12 09:06:32;;;;;;;;;;;16.90;59.00;;;;;;10136774;28;90123;-67
2023/04/12 09:11:33;;;;;;;;;;;16.90;59.10;;;;;;10136375;28;88109;-67
2023/04/12 09:16:39;;;;;;;;;;;16.90;58.90;;;;;;10136541;28;90770;-68
2023/04/12 09:21:52;;;;;;;;;;;16.90;59.00;;;;;;10137544;28;89079;-67
2023/04/12 09:27:03;;;;;;;;;;;17.00;59.00;;;;;;10136395;28;90319;-68
2023/04/12 09:32:06;;;;;;;;;;;17.00;59.00;;;;;;10136550;28;89120;-68
2023/04/12 09:37:12;;;;;;;;;;;17.00;58.90;;;;;;10119183;28;89662;-68
2023/04/12 09:42:14;;;;;;;;;;;17.10;58.90;;;;;;10118410;28;88893;-67
2023/04/12 09:47:37;;;;;;;;;;;17.20;58.70;;;;;;10135157;28;88720;-68
2023/04/12 09:52:40;;;;;;;;;;;17.30;58.70;;;;;;10135952;28;88134;-67
2023/04/12 09:57:42;;;;;;;;;;;17.30;58.50;;;;;;10133935;28;88102;-67
2023/04/12 10:02:45;;;;;;;;;;;17.30;58.40;;;;;;10134794;28;88163;-67
2023/04/12 10:07:48;;;;;;;;;;;17.20;58.40;;;;;;10133863;28;90118;-68
2023/04/12 10:12:51;;;;;;;;;;;17.20;58.40;;;;;;10134882;28;89679;-67
2023/04/12 10:17:53;;;;;;;;;;;17.20;58.50;;;;;;10134740;28;88375;-68
2023/04/12 10:22:56;;;;;;;;;;;17.20;58.50;;;;;;10134935;28;90060;-68
2023/04/12 10:28:12;;;;;;;;;;;17.20;58.50;;;;;;10133983;28;89128;-67
2023/04/12 10:33:15;;;;;;;;;;;17.30;58.60;;;;;;10134223;28;88127;-67
2023/04/12 10:38:17;;;;;;;;;;;17.20;58.40;;;;;;10135269;28;90511;-68
2023/04/12 10:43:22;;;;;;;;;;;17.30;58.40;;;;;;10133296;28;89417;-67
2023/04/12 10:48:31;;;;;;;;;;;17.30;58.40;;;;;;10141542;28;90064;-67
2023/04/12 10:53:33;;;;;;;;;;;17.30;58.40;;;;;;10173757;28;89997;-67
2023/04/12 10:58:55;;;;;;;;;;;17.40;58.20;;;;;;10172402;28;91234;-68
2023/04/12 11:04:12;;;;;;;;;;;17.30;58.00;;;;;;10173650;28;90040;-68
2023/04/12 11:09:22;;;;;;;;;;;17.30;58.00;;;;;;10171298;28;89126;-67
2023/04/12 11:14:28;;;;;;;;;;;17.30;58.10;;;;;;10172783;28;89209;-68
2023/04/12 11:19:31;;;;;;;;;;;17.30;58.00;;;;;;10172954;28;89675;-68
2023/04/12 11:24:36;;;;;;;;;;;17.40;58.00;;;;;;10171998;28;88850;-68
2023/04/12 11:29:38;;;;;;;;;;;17.40;57.90;;;;;;10171147;28;89115;-68
2023/04/12 11:34:40;;;;;;;;;;;17.40;57.80;;;;;;10173309;28;89521;-68
2023/04/12 11:39:43;;;;;;;;;;;17.40;57.80;;;;;;10171684;28;89057;-68
2023/04/12 11:44:45;;;;;;;;;;;17.30;57.80;;;;;;10154372;28;89329;-68
2023/04/12 11:49:51;;;;;;;;;;;17.40;57.70;;;;;;10169469;28;90410;-68
2023/04/12 11:54:55;;;;;;;;;;;17.40;57.80;;;;;;10174820;28;88844;-68
2023/04/12 12:00:00;;;;;;;;;;;17.40;57.50;;;;;;10178697;28;89555;-68
2023/04/12 12:05:02;;;;;;;;;;;17.40;57.60;;;;;;10178950;28;89184;-68
2023/04/12 12:10:04;;;;;;;;;;;17.30;57.50;;;;;;10178172;28;90173;-68
2023/04/12 12:15:06;;;;;;;;;;;17.30;57.60;;;;;;10179042;28;89830;-68
2023/04/12 12:20:18;;;;;;;;;;;17.30;57.60;;;;;;10177355;28;90084;-68
2023/04/12 12:25:21;;;;;;;;;;;17.30;57.60;;;;;;10160350;28;89139;-68
2023/04/12 12:30:23;;;;;;;;;;;17.30;57.70;;;;;;10177259;28;89001;-67
2023/04/12 12:35:26;;;;;;;;;;;17.30;57.60;;;;;;10176878;28;89038;-68
2023/04/12 12:40:30;;;;;;;;;;;17.20;57.60;;;;;;10159075;28;89773;-68
2023/04/12 12:45:32;;;;;;;;;;;17.20;57.50;;;;;;10159506;28;90129;-68
2023/04/12 12:50:35;;;;;;;;;;;17.20;57.50;;;;;;10176754;28;89750;-67
2023/04/12 12:55:37;;;;;;;;;;;17.20;57.30;;;;;;10177175;28;89093;-68
2023/04/12 13:00:40;;;;;;;;;;;17.10;57.40;;;;;;10176221;28;90013;-67
2023/04/12 13:05:41;;;;;;;;;;;17.10;58.50;;;;;;10175238;28;88854;-67
2023/04/12 13:10:43;;;;;;;;;;;17.10;57.50;;;;;;10176280;28;89864;-68
2023/04/12 13:15:47;;;;;;;;;;;17.10;57.50;;;;;;10176957;28;87758;-67
2023/04/12 13:20:49;;;;;;;;;;;17.10;57.60;;;;;;10175554;28;88921;-67
2023/04/12 13:25:51;;;;;;;;;;;17.10;57.70;;;;;;10191289;28;89131;-68
2023/04/12 13:30:53;;;;;;;;;;;17.00;57.70;;;;;;10173996;28;90562;-68
2023/04/12 13:35:55;;;;;;;;;;;17.10;57.80;;;;;;10176146;28;89493;-68
2023/04/12 13:40:57;;;;;;;;;;;17.10;57.90;;;;;;10157649;28;89190;-68
2023/04/12 13:45:59;;;;;;;;;;;17.00;57.90;;;;;;10174620;28;89615;-68
2023/04/12 13:51:01;;;;;;;;;;;17.00;57.90;;;;;;10174177;28;89209;-68
2023/04/12 13:56:03;;;;;;;;;;;17.10;58.00;;;;;;10174861;28;88309;-69
2023/04/12 14:01:06;;;;;;;;;;;17.10;57.90;;;;;;10175610;28;89207;-68
2023/04/12 14:06:08;;;;;;;;;;;17.10;57.70;;;;;;10174534;28;88741;-68
2023/04/12 14:11:10;;;;;;;;;;;17.20;57.70;;;;;;10175575;28;89232;-67
2023/04/12 14:16:11;;;;;;;;;;;17.20;57.60;;;;;;10175016;28;88991;-68
2023/04/12 14:21:13;;;;;;;;;;;17.20;57.50;;;;;;10173263;28;90785;-68
2023/04/12 14:26:15;;;;;;;;;;;17.20;57.50;;;;;;10175017;28;90166;-67
2023/04/12 14:31:16;;;;;;;;;;;17.20;57.50;;;;;;10173260;28;89824;-68
2023/04/12 14:36:18;;;;;;;;;;;17.20;57.30;;;;;;10174362;28;89019;-66
2023/04/12 14:41:20;;;;;;;;;;;17.20;57.30;;;;;;10156620;28;89239;-67
2023/04/12 14:46:24;;;;;;;;;;;17.20;57.20;;;;;;10156150;28;88859;-68
2023/04/12 14:51:29;;;;;;;;;;;17.30;57.20;;;;;;10155668;28;90024;-67
2023/04/12 14:56:31;;;;;;;;;;;17.30;57.10;;;;;;10174228;28;89420;-68
2023/04/12 15:01:38;;;;;;;;;;;17.30;57.10;;;;;;10171865;28;89027;-68
2023/04/12 15:06:43;;;;;;;;;;;17.30;57.00;;;;;;10172226;28;89016;-68
2023/04/12 15:11:48;;;;;;;;;;;17.30;57.00;;;;;;10171646;28;89981;-68
2023/04/12 15:16:50;;;;;;;;;;;17.30;57.00;;;;;;10154985;28;89892;-68
2023/04/12 15:21:55;;;;;;;;;;;17.30;57.20;;;;;;10154895;28;90775;-67
2023/04/12 15:26:57;;;;;;;;;;;17.30;57.10;;;;;;10172596;28;89576;-68
2023/04/12 15:31:59;;;;;;;;;;;17.40;57.10;;;;;;10170894;28;89462;-68
2023/04/12 15:37:01;;;;;;;;;;;17.50;57.10;;;;;;10171144;28;89492;-68
2023/04/12 15:42:04;;;;;;;;;;;17.50;56.90;;;;;;10171922;28;90280;-68
2023/04/12 15:47:06;;;;;;;;;;;17.60;56.90;;;;;;10170108;28;88131;-68
2023/04/12 15:52:12;;;;;;;;;;;17.60;56.80;;;;;;10170946;28;89884;-69
2023/04/12 15:57:14;;;;;;;;;;;17.60;56.90;;;;;;10151396;28;90417;-68
2023/04/12 16:02:16;;;;;;;;;;;17.70;57.10;;;;;;10170259;28;90133;-68
2023/04/12 16:07:18;;;;;;;;;;;17.70;57.00;;;;;;10171896;28;88379;-68
2023/04/12 16:12:20;;;;;;;;;;;17.80;57.30;;;;;;10148500;28;89889;-69
2023/04/12 16:17:22;;;;;;;;;;;17.80;57.20;;;;;;10144217;28;90247;-69
2023/04/12 16:22:23;;;;;;;;;;;17.90;57.30;;;;;;10170860;28;90070;-68
2023/04/12 16:27:28;;;;;;;;;;;17.90;58.00;;;;;;10170954;28;90362;-69
2023/04/12 16:32:34;;;;;;;;;;;17.90;57.90;;;;;;10170195;28;90835;-68
2023/04/12 16:37:36;;;;;;;;;;;18.00;58.30;;;;;;10170923;28;88024;-68
2023/04/12 16:42:39;;;;;;;;;;;18.00;58.30;;;;;;10174760;28;90704;-68
2023/04/12 16:47:41;;;;;;;;;;;18.10;58.00;;;;;;10159545;28;89747;-68
2023/04/12 16:52:43;;;;;;;;;;;18.00;58.00;;;;;;10158274;28;90282;-67
2023/04/12 16:57:45;;;;;;;;;;;18.00;58.00;;;;;;10162275;28;89157;-67
2023/04/12 17:02:50;;;;;;;;;;;18.00;58.00;;;;;;10160415;28;88834;-69
2023/04/12 17:07:53;;;;;;;;;;;17.90;58.20;;;;;;10160240;28;89794;-68
2023/04/12 17:12:58;;;;;;;;;;;17.90;58.40;;;;;;10178152;28;89070;-68
2023/04/12 17:18:01;;;;;;;;;;;17.90;58.50;;;;;;10177498;28;89057;-67
2023/04/12 17:23:03;;;;;;;;;;;17.80;58.50;;;;;;10158661;28;89091;-68
2023/04/12 17:28:07;;;;;;;;;;;17.80;58.70;;;;;;10176543;28;88209;-69
2023/04/12 17:33:08;;;;;;;;;;;17.80;58.70;;;;;;10175861;28;90409;-68
2023/04/12 17:38:10;;;;;;;;;;;17.80;58.70;;;;;;10175766;28;89155;-67
2023/04/12 17:43:12;;;;;;;;;;;17.80;58.80;;;;;;10172441;28;89295;-68
2023/04/12 17:48:14;;;;;;;;;;;17.80;58.90;;;;;;10172670;28;89407;-68
2023/04/12 17:53:15;;;;;;;;;;;17.80;58.90;;;;;;10174640;28;88781;-69
2023/04/12 17:58:17;;;;;;;;;;;17.70;58.80;;;;;;10173320;28;89058;-68
2023/04/12 18:03:19;;;;;;;;;;;17.70;58.60;;;;;;10174020;28;89176;-68
2023/04/12 18:08:24;;;;;;;;;;;17.60;58.50;;;;;;10173564;28;89884;-68
2023/04/12 18:13:26;;;;;;;;;;;17.60;58.40;;;;;;10173363;28;89247;-68
2023/04/12 18:18:27;;;;;;;;;;;17.70;58.30;;;;;;10175341;28;88010;-68
2023/04/12 18:23:29;;;;;;;;;;;17.80;58.10;;;;;;10173311;28;88833;-67
2023/04/12 18:28:31;;;;;;;;;;;18.00;57.70;;;;;;10173107;28;90090;-67
2023/04/12 18:33:32;;;;;;;;;;;18.10;57.30;;;;;;10155275;28;90739;-68
2023/04/12 18:38:34;;;;;;;;;;;18.10;57.10;;;;;;10173262;28;88784;-67
2023/04/12 18:43:37;;;;;;;;;;;18.10;57.10;;;;;;10172795;28;88687;-67
2023/04/12 18:48:40;;;;;;;;;;;18.10;57.20;;;;;;10172300;28;89825;-68
2023/04/12 18:53:42;;;;;;;;;;;18.00;57.20;;;;;;10171340;28;89134;-67
2023/04/12 18:58:44;;;;;;;;;;;18.00;57.30;;;;;;10172838;28;89249;-68
2023/04/12 19:03:57;;;;;;;;;;;18.00;57.40;;;;;;10171700;28;90464;-69
2023/04/12 19:09:00;;;;;;;;;;;18.00;57.40;;;;;;10171896;28;89283;-68
2023/04/12 19:14:02;;;;;;;;;;;17.90;57.30;;;;;;10171695;28;89395;-67
2023/04/12 19:19:04;;;;;;;;;;;17.90;57.50;;;;;;10155110;28;88656;-67
2023/04/12 19:24:06;;;;;;;;;;;17.80;57.40;;;;;;10154655;28;90712;-68
2023/04/12 19:29:09;;;;;;;;;;;17.90;57.50;;;;;;10171549;28;109575;-67
2023/04/12 19:34:13;;;;;;;;;;;17.80;57.40;;;;;;10171099;28;88661;-68
2023/04/12 19:39:19;;;;;;;;;;;17.80;57.40;;;;;;10170637;28;89256;-68
2023/04/12 19:44:22;;;;;;;;;;;17.80;57.60;;;;;;10171328;28;90118;-67
2023/04/12 19:49:23;;;;;;;;;;;17.80;57.60;;;;;;10152215;28;89112;-68
2023/04/12 19:54:26;;;;;;;;;;;17.80;57.60;;;;;;10171311;28;89737;-67
2023/04/12 19:59:29;;;;;;;;;;;17.70;57.50;;;;;;10153213;28;88325;-68
2023/04/12 20:04:32;;;;;;;;;;;17.70;57.60;;;;;;10169676;28;89278;-68
2023/04/12 20:09:34;;;;;;;;;;;17.70;57.60;;;;;;10151773;28;89493;-68
2023/04/12 20:14:37;;;;;;;;;;;17.70;57.60;;;;;;10170688;28;89119;-68
2023/04/12 20:19:38;;;;;;;;;;;17.60;57.60;;;;;;10159808;28;90474;-68
2023/04/12 20:24:40;;;;;;;;;;;17.60;58.70;;;;;;10160445;28;89089;-67
2023/04/12 20:29:43;;;;;;;;;;;17.60;57.80;;;;;;10176319;28;89107;-68
2023/04/12 20:34:46;;;;;;;;;;;17.60;57.80;;;;;;10177987;28;89937;-67
2023/04/12 20:39:49;;;;;;;;;;;17.50;57.80;;;;;;10182403;28;88429;-67
2023/04/12 20:44:51;;;;;;;;;;;17.50;57.80;;;;;;10177391;28;88888;-68
2023/04/12 20:49:54;;;;;;;;;;;17.50;57.80;;;;;;10177438;28;88936;-67
2023/04/12 20:54:56;;;;;;;;;;;17.50;57.80;;;;;;10175700;28;88819;-68
2023/04/12 20:59:58;;;;;;;;;;;17.50;57.80;;;;;;10174961;28;90052;-68
2023/04/12 21:05:00;;;;;;;;;;;17.50;57.70;;;;;;10174295;28;89578;-67
2023/04/12 21:10:01;;;;;;;;;;;17.40;57.60;;;;;;10176880;28;90049;-67
2023/04/12 21:15:04;;;;;;;;;;;17.40;57.60;;;;;;10175869;28;89782;-68
2023/04/12 21:20:12;;;;;;;;;;;17.40;57.60;;;;;;10176252;28;89989;-68
2023/04/12 21:25:15;;;;;;;;;;;17.40;57.60;;;;;;10174596;28;88992;-68
2023/04/12 21:30:19;;;;;;;;;;;17.40;57.50;;;;;;10175040;28;88855;-67
2023/04/12 21:35:21;;;;;;;;;;;17.30;57.40;;;;;;10174151;28;88310;-68
2023/04/12 21:40:23;;;;;;;;;;;17.30;57.30;;;;;;10175933;28;88914;-68
2023/04/12 21:45:26;;;;;;;;;;;17.30;57.50;;;;;;10173606;28;89745;-67
2023/04/12 21:50:27;;;;;;;;;;;17.30;57.30;;;;;;10159086;28;89994;-67
2023/04/12 21:55:29;;;;;;;;;;;17.30;57.40;;;;;;10174680;28;90038;-68
2023/04/12 22:00:31;;;;;;;;;;;17.20;57.30;;;;;;10157230;28;88917;-67
2023/04/12 22:05:34;;;;;;;;;;;17.20;57.20;;;;;;10174492;28;89407;-67
2023/04/12 22:10:36;;;;;;;;;;;17.20;57.20;;;;;;10173721;28;89343;-67
2023/04/12 22:15:39;;;;;;;;;;;17.20;57.20;;;;;;10175233;28;89495;-68
2023/04/12 22:20:41;;;;;;;;;;;17.20;57.20;;;;;;10173472;28;89112;-68
2023/04/12 22:25:43;;;;;;;;;;;17.10;57.10;;;;;;10173936;28;89839;-68
2023/04/12 22:30:45;;;;;;;;;;;17.10;57.10;;;;;;10174110;28;88579;-68
2023/04/12 22:35:47;;;;;;;;;;;17.10;57.10;;;;;;10173784;28;89014;-68
2023/04/12 22:40:50;;;;;;;;;;;17.10;57.10;;;;;;10173359;28;90096;-67
2023/04/12 22:45:52;;;;;;;;;;;17.10;57.10;;;;;;10172507;28;89675;-67
2023/04/12 22:50:54;;;;;;;;;;;17.00;57.10;;;;;;10172637;28;89096;-68
2023/04/12 22:55:56;;;;;;;;;;;17.00;57.10;;;;;;10172661;28;90231;-67
2023/04/12 23:00:58;;;;;;;;;;;17.00;57.00;;;;;;10155818;28;89845;-68
2023/04/12 23:05:59;;;;;;;;;;;17.00;56.90;;;;;;10173137;28;89217;-67
2023/04/12 23:11:01;;;;;;;;;;;17.00;56.90;;;;;;10172183;28;88932;-68
2023/04/12 23:16:04;;;;;;;;;;;17.00;56.80;;;;;;10173465;28;89646;-67
2023/04/12 23:21:09;;;;;;;;;;;17.00;56.70;;;;;;10172312;28;88481;-67
2023/04/12 23:26:12;;;;;;;;;;;16.90;56.60;;;;;;10173276;28;90244;-68
2023/04/12 23:31:13;;;;;;;;;;;16.90;56.50;;;;;;10155437;28;88707;-68
2023/04/12 23:36:15;;;;;;;;;;;16.90;56.60;;;;;;10172532;28;90791;-69
2023/04/12 23:41:17;;;;;;;;;;;16.90;56.60;;;;;;10172191;28;89823;-69
2023/04/12 23:46:19;;;;;;;;;;;16.90;56.70;;;;;;10172395;28;89280;-68
2023/04/12 23:51:22;;;;;;;;;;;16.90;56.70;;;;;;10176790;28;88176;-67
2023/04/12 23:56:23;;;;;;;;;;;16.90;56.60;;;;;;10179693;28;89801;-68
